Time;durP1;ratioP1;P1;durP2;ratioP2;P2;SDS_P1;SDS_P2;PMS_P1;PMS_P2;Temp;Humidity;BMP_temperature;BMP_pressure;BME280_temperature;BME280_humidity;BME280_pressure;Samples;Min_cycle;Max_cycle;Signal;HPM_P1;HPM_P2
2022/09/21 00:00:26;;;;;;;;;;;16.80;99.90;;;;;;5058156;28;19990;-91
2022/09/21 00:02:55;;;;;;;;;;;16.80;99.90;;;;;;5075190;28;19913;-91
2022/09/21 00:05:21;;;;;;;;;;;16.80;99.90;;;;;;5076027;28;19923;-91
2022/09/21 00:07:46;;;;;;;;;;;16.70;99.90;;;;;;5059640;28;19908;-92
2022/09/21 00:10:12;;;;;;;;;;;16.70;99.90;;;;;;5058371;28;19908;-92
2022/09/21 00:12:38;;;;;;;;;;;16.70;99.90;;;;;;5059488;28;19954;-92
2022/09/21 00:15:08;;;;;;;;;;;16.70;99.90;;;;;;5059924;28;19916;-92
2022/09/21 00:17:33;;;;;;;;;;;16.70;99.90;;;;;;5057428;28;20021;-92
2022/09/21 00:20:01;;;;;;;;;;;16.70;99.90;;;;;;5058539;28;20195;-92
2022/09/21 00:22:28;;;;;;;;;;;16.70;99.90;;;;;;5058673;28;20425;-92
2022/09/21 00:24:54;;;;;;;;;;;16.70;99.90;;;;;;5057205;28;19999;-92
2022/09/21 00:27:20;;;;;;;;;;;16.70;99.90;;;;;;5057173;28;19995;-92
2022/09/21 00:29:47;;;;;;;;;;;16.70;99.90;;;;;;5056545;28;19918;-92
2022/09/21 00:32:14;;;;;;;;;;;16.60;99.90;;;;;;5057167;28;19916;-92
2022/09/21 00:34:40;;;;;;;;;;;16.60;99.90;;;;;;5057703;28;19908;-92
2022/09/21 00:37:08;;;;;;;;;;;16.70;99.90;;;;;;5075036;28;19932;-92
2022/09/21 00:39:34;;;;;;;;;;;16.60;99.90;;;;;;5058449;28;19908;-92
2022/09/21 00:41:59;;;;;;;;;;;16.60;99.90;;;;;;5057819;28;19912;-92
2022/09/21 00:44:29;;;;;;;;;;;16.60;99.90;;;;;;5058185;28;20007;-91
2022/09/21 00:46:57;;;;;;;;;;;16.60;99.90;;;;;;5058576;28;19991;-91
2022/09/21 00:49:23;;;;;;;;;;;16.60;99.90;;;;;;5058610;28;20093;-91
2022/09/21 00:51:52;;;;;;;;;;;16.60;99.90;;;;;;5058605;28;19970;-91
2022/09/21 00:54:23;;;;;;;;;;;16.60;99.90;;;;;;5058472;28;19908;-91
2022/09/21 01:01:52;;;;;;;;;;;16.50;99.90;;;;;;5069893;28;19924;-8
2022/09/21 01:04:18;;;;;;;;;;;16.50;99.90;;;;;;5059855;28;19958;-8
2022/09/21 01:06:46;;;;;;;;;;;16.50;99.90;;;;;;5077490;28;19958;-9
2022/09/21 01:09:13;;;;;;;;;;;16.50;99.90;;;;;;5077424;28;19916;-8
2022/09/21 01:11:39;;;;;;;;;;;16.50;99.90;;;;;;5076739;28;19973;-6
2022/09/21 01:14:10;;;;;;;;;;;16.50;99.90;;;;;;5076658;28;19908;-9
2022/09/21 01:16:35;;;;;;;;;;;16.50;99.90;;;;;;5076650;28;19951;-7
2022/09/21 01:19:17;;;;;;;;;;;16.50;99.90;;;;;;5077378;28;19908;-7
2022/09/21 01:21:52;;;;;;;;;;;16.50;99.90;;;;;;5076499;28;19912;-9
2022/09/21 01:24:36;;;;;;;;;;;16.50;99.90;;;;;;5077050;28;19913;-9
2022/09/21 01:27:20;;;;;;;;;;;16.50;99.80;;;;;;5056983;28;20395;-9
2022/09/21 01:29:50;;;;;;;;;;;16.50;99.80;;;;;;5058016;28;19909;-7
2022/09/21 01:32:24;;;;;;;;;;;16.50;99.80;;;;;;5074675;28;20270;-7
2022/09/21 01:34:57;;;;;;;;;;;16.40;99.70;;;;;;5056558;28;20239;-8
2022/09/21 01:37:32;;;;;;;;;;;16.50;99.70;;;;;;5074645;28;20006;-7
2022/09/21 01:40:00;;;;;;;;;;;16.50;99.60;;;;;;5074190;28;19908;-9
2022/09/21 01:42:27;;;;;;;;;;;16.50;99.60;;;;;;5073767;28;19917;-7
2022/09/21 01:44:55;;;;;;;;;;;16.40;99.60;;;;;;5055361;28;19909;-8
2022/09/21 01:47:21;;;;;;;;;;;16.50;99.60;;;;;;5072491;28;19908;-7
2022/09/21 01:49:49;;;;;;;;;;;16.50;99.60;;;;;;5074131;28;19965;-8
2022/09/21 01:52:20;;;;;;;;;;;16.40;99.40;;;;;;5073762;28;19920;-8
2022/09/21 01:54:49;;;;;;;;;;;16.40;99.40;;;;;;5073138;28;20290;-7
2022/09/21 01:57:20;;;;;;;;;;;16.40;99.40;;;;;;5074401;28;20318;-7
2022/09/21 01:59:51;;;;;;;;;;;16.40;99.40;;;;;;5074411;28;19934;-8
2022/09/21 02:02:31;;;;;;;;;;;16.50;99.40;;;;;;5074291;28;20309;-9
2022/09/21 02:04:59;;;;;;;;;;;16.50;99.40;;;;;;5057028;28;19908;-7
2022/09/21 02:07:24;;;;;;;;;;;16.50;99.20;;;;;;5074737;28;19919;-10
2022/09/21 02:09:50;;;;;;;;;;;16.50;99.40;;;;;;5057793;28;20243;-9
2022/09/21 02:12:16;;;;;;;;;;;16.50;99.10;;;;;;5075488;28;19909;-7
2022/09/21 02:14:42;;;;;;;;;;;16.50;99.10;;;;;;5075466;28;19908;-7
2022/09/21 02:17:07;;;;;;;;;;;16.50;99.00;;;;;;5075164;28;19974;-7
2022/09/21 02:19:38;;;;;;;;;;;16.50;99.00;;;;;;5058286;28;19909;-8
2022/09/21 02:22:11;;;;;;;;;;;16.50;99.00;;;;;;5075286;28;20011;-6
2022/09/21 02:24:38;;;;;;;;;;;16.40;98.90;;;;;;5074268;28;20277;-8
2022/09/21 02:27:19;;;;;;;;;;;16.40;98.90;;;;;;5075405;28;19908;-8
2022/09/21 02:29:51;;;;;;;;;;;16.50;98.90;;;;;;5075073;28;19999;-7
2022/09/21 02:32:19;;;;;;;;;;;16.40;98.90;;;;;;5075642;28;20236;-8
2022/09/21 02:34:48;;;;;;;;;;;16.40;98.90;;;;;;5075264;28;20278;-8
2022/09/21 02:37:21;;;;;;;;;;;16.40;98.90;;;;;;5056988;28;19916;-8
2022/09/21 02:39:52;;;;;;;;;;;16.40;98.90;;;;;;5075384;28;19994;-8
2022/09/21 02:42:28;;;;;;;;;;;16.40;98.90;;;;;;5059025;28;21498;-9
2022/09/21 02:45:08;;;;;;;;;;;16.30;98.90;;;;;;5079111;28;19987;-7
2022/09/21 02:47:55;;;;;;;;;;;16.30;98.90;;;;;;5060934;28;19913;-8
2022/09/21 02:50:23;;;;;;;;;;;16.30;98.90;;;;;;5059040;28;19913;-8
2022/09/21 02:52:50;;;;;;;;;;;16.30;98.90;;;;;;5076712;28;19909;-11
2022/09/21 02:55:16;;;;;;;;;;;16.30;98.90;;;;;;5076334;28;19909;-9
2022/09/21 02:57:42;;;;;;;;;;;16.30;98.80;;;;;;5075293;28;20068;-8
2022/09/21 03:00:08;;;;;;;;;;;16.30;98.80;;;;;;5074343;28;19928;-9
2022/09/21 03:02:38;;;;;;;;;;;16.30;98.80;;;;;;5074476;28;20077;-7
2022/09/21 03:05:05;;;;;;;;;;;16.30;98.70;;;;;;5058596;28;19913;-7
2022/09/21 03:07:31;;;;;;;;;;;16.30;98.70;;;;;;5076439;28;19909;-8
2022/09/21 03:09:57;;;;;;;;;;;16.30;98.60;;;;;;5076486;28;20201;-7
2022/09/21 03:12:22;;;;;;;;;;;16.30;98.60;;;;;;5077148;28;19916;-8
2022/09/21 03:14:50;;;;;;;;;;;16.30;98.60;;;;;;5076025;28;19991;-8
2022/09/21 03:17:15;;;;;;;;;;;16.30;98.60;;;;;;5059372;28;19962;-8
2022/09/21 03:19:42;;;;;;;;;;;16.30;98.60;;;;;;5077181;28;19963;-8
2022/09/21 03:22:07;;;;;;;;;;;16.30;98.60;;;;;;5076046;28;19982;-7
2022/09/21 03:24:45;;;;;;;;;;;16.30;98.60;;;;;;5076328;28;19944;-8
2022/09/21 03:27:15;;;;;;;;;;;16.20;98.60;;;;;;5058636;28;19908;-8
2022/09/21 03:29:41;;;;;;;;;;;16.20;98.60;;;;;;5075944;28;19920;-8
2022/09/21 03:32:06;;;;;;;;;;;16.20;98.60;;;;;;5057721;28;19909;-8
2022/09/21 03:34:33;;;;;;;;;;;16.20;98.60;;;;;;5076111;28;19973;-8
2022/09/21 03:37:05;;;;;;;;;;;16.30;98.60;;;;;;5075715;28;20254;-7
2022/09/21 03:39:30;;;;;;;;;;;16.40;98.40;;;;;;5056855;28;19970;-7
2022/09/21 03:41:56;;;;;;;;;;;16.50;98.00;;;;;;5073151;28;19912;-7
2022/09/21 03:44:22;;;;;;;;;;;16.70;97.50;;;;;;5073805;28;20266;-8
2022/09/21 03:46:49;;;;;;;;;;;16.90;97.00;;;;;;5073675;28;19908;-8
2022/09/21 03:49:15;;;;;;;;;;;17.10;96.40;;;;;;5055632;28;19909;-8
2022/09/21 03:51:40;;;;;;;;;;;17.20;95.80;;;;;;5055088;28;19965;-9
2022/09/21 03:54:06;;;;;;;;;;;17.30;95.30;;;;;;5075368;28;19996;-7
2022/09/21 03:56:32;;;;;;;;;;;17.40;94.90;;;;;;5057051;28;20217;-7
2022/09/21 03:58:57;;;;;;;;;;;17.50;94.60;;;;;;5075517;28;19917;-9
2022/09/21 04:01:23;;;;;;;;;;;17.50;94.40;;;;;;5073677;28;19916;-8
2022/09/21 04:03:48;;;;;;;;;;;17.50;94.30;;;;;;5056772;28;20190;-9
2022/09/21 04:06:14;;;;;;;;;;;17.50;94.30;;;;;;5073156;28;20001;-8
2022/09/21 04:08:39;;;;;;;;;;;17.50;94.30;;;;;;5055787;28;19912;-6
2022/09/21 04:11:12;;;;;;;;;;;17.40;94.30;;;;;;5056403;28;20285;-8
2022/09/21 04:13:38;;;;;;;;;;;17.40;94.40;;;;;;5073631;28;19909;-8
2022/09/21 04:16:03;;;;;;;;;;;17.30;94.50;;;;;;5056002;28;19974;-9
2022/09/21 04:18:29;;;;;;;;;;;17.30;94.60;;;;;;5072653;28;20126;-8
2022/09/21 04:20:54;;;;;;;;;;;17.20;94.70;;;;;;5072184;28;19908;-9
2022/09/21 04:23:21;;;;;;;;;;;17.20;94.80;;;;;;5054522;28;19977;-9
2022/09/21 04:25:50;;;;;;;;;;;17.10;95.00;;;;;;5071399;28;19919;-7
2022/09/21 04:28:16;;;;;;;;;;;17.10;95.10;;;;;;5053501;28;19908;-9
2022/09/21 04:30:41;;;;;;;;;;;17.00;95.20;;;;;;5072078;28;19908;-9
2022/09/21 04:33:07;;;;;;;;;;;17.00;95.30;;;;;;5071150;28;19961;-9
2022/09/21 04:35:32;;;;;;;;;;;16.90;95.40;;;;;;5069896;28;20007;-9
2022/09/21 04:37:58;;;;;;;;;;;16.90;95.60;;;;;;5071797;28;19947;-9
2022/09/21 04:40:24;;;;;;;;;;;16.80;95.70;;;;;;5052604;28;19916;-9
2022/09/21 04:42:53;;;;;;;;;;;16.80;95.80;;;;;;5051067;28;19917;-8
2022/09/21 04:45:19;;;;;;;;;;;16.70;95.80;;;;;;5070034;28;20301;-8
2022/09/21 04:47:45;;;;;;;;;;;16.70;95.90;;;;;;5069800;28;19908;-9
2022/09/21 04:50:10;;;;;;;;;;;16.60;96.00;;;;;;5070495;28;19942;-9
2022/09/21 04:52:36;;;;;;;;;;;16.60;96.00;;;;;;5052513;28;20060;-8
2022/09/21 04:55:02;;;;;;;;;;;16.60;96.10;;;;;;5054086;28;20196;-9
2022/09/21 04:57:27;;;;;;;;;;;16.60;96.10;;;;;;5052490;28;20180;-9
2022/09/21 04:59:53;;;;;;;;;;;16.50;96.20;;;;;;5070214;28;19912;-8
2022/09/21 05:02:18;;;;;;;;;;;16.50;96.20;;;;;;5078114;22;19924;-10
2022/09/21 05:04:44;;;;;;;;;;;16.50;96.30;;;;;;5070268;28;20027;-10
2022/09/21 05:07:09;;;;;;;;;;;16.40;96.30;;;;;;5070212;28;19916;-11
2022/09/21 05:12:19;;;;;;;;;;;16.40;96.40;;;;;;5067625;28;19924;-11
2022/09/21 05:14:44;;;;;;;;;;;16.40;96.40;;;;;;5050448;28;19909;-8
2022/09/21 05:17:11;;;;;;;;;;;16.40;96.40;;;;;;5069191;28;19908;-8
2022/09/21 05:19:36;;;;;;;;;;;16.30;96.40;;;;;;5050211;28;19909;-8
2022/09/21 05:22:03;;;;;;;;;;;16.30;96.50;;;;;;5069332;28;19994;-8
2022/09/21 05:24:29;;;;;;;;;;;16.30;96.50;;;;;;5050545;28;20227;-8
2022/09/21 05:26:54;;;;;;;;;;;16.40;96.50;;;;;;5050443;28;20163;-8
2022/09/21 05:29:20;;;;;;;;;;;16.40;96.40;;;;;;5067754;28;19916;-9
2022/09/21 05:31:59;;;;;;;;;;;16.40;96.30;;;;;;5065098;28;20001;-9
2022/09/21 05:34:24;;;;;;;;;;;16.50;96.20;;;;;;5060727;28;19908;-9
2022/09/21 05:36:59;;;;;;;;;;;16.50;96.00;;;;;;5065377;28;19923;-9
2022/09/21 05:39:25;;;;;;;;;;;16.60;95.90;;;;;;5066568;28;20324;-8
2022/09/21 05:41:51;;;;;;;;;;;16.70;95.80;;;;;;5047009;28;20133;-8
2022/09/21 05:44:17;;;;;;;;;;;16.80;95.70;;;;;;5048359;28;20337;-9
2022/09/21 05:46:42;;;;;;;;;;;16.80;95.50;;;;;;5049186;28;19908;-9
2022/09/21 05:49:14;;;;;;;;;;;16.90;95.30;;;;;;5066888;28;19948;-7
2022/09/21 05:51:39;;;;;;;;;;;17.00;95.20;;;;;;5068734;28;20026;-7
2022/09/21 05:54:14;;;;;;;;;;;17.10;95.00;;;;;;5068062;28;19970;-9
2022/09/21 05:56:58;;;;;;;;;;;17.10;95.00;;;;;;5049088;28;19966;-7
2022/09/21 05:59:30;;;;;;;;;;;17.10;94.90;;;;;;5049250;28;19909;-8
2022/09/21 06:02:04;;;;;;;;;;;17.40;94.60;;;;;;5063803;28;19971;-8
2022/09/21 06:04:30;;;;;;;;;;;17.90;93.30;;;;;;5047752;28;20029;-8
2022/09/21 06:06:56;;;;;;;;;;;18.50;91.80;;;;;;5065268;28;20005;-8
2022/09/21 06:09:21;;;;;;;;;;;18.90;90.40;;;;;;5046961;28;20125;-9
2022/09/21 06:11:48;;;;;;;;;;;19.20;88.10;;;;;;5045474;28;19920;-9
2022/09/21 06:14:13;;;;;;;;;;;19.50;84.90;;;;;;5046785;28;19908;-8
2022/09/21 06:16:40;;;;;;;;;;;19.80;82.30;;;;;;5049751;28;19919;-9
2022/09/21 06:19:05;;;;;;;;;;;20.10;79.70;;;;;;5052073;28;19958;-9
2022/09/21 06:21:31;;;;;;;;;;;20.40;77.10;;;;;;5069989;28;19912;-9
2022/09/21 06:23:57;;;;;;;;;;;20.60;74.70;;;;;;5068919;28;19916;-8
2022/09/21 06:26:22;;;;;;;;;;;20.90;72.70;;;;;;5068539;28;19916;-9
2022/09/21 06:28:48;;;;;;;;;;;21.10;71.00;;;;;;5052040;28;20179;-8
2022/09/21 06:31:13;;;;;;;;;;;21.30;69.20;;;;;;5050211;28;19908;-8
2022/09/21 06:33:39;;;;;;;;;;;21.50;67.60;;;;;;5051523;28;19923;-9
2022/09/21 06:36:05;;;;;;;;;;;21.80;66.00;;;;;;5067998;28;19908;-9
2022/09/21 06:38:30;;;;;;;;;;;22.00;64.70;;;;;;5064925;28;19975;-9
2022/09/21 06:41:00;;;;;;;;;;;22.20;63.20;;;;;;5068861;28;20015;-9
2022/09/21 06:43:25;;;;;;;;;;;22.40;62.10;;;;;;5069423;28;19915;-9
2022/09/21 06:45:55;;;;;;;;;;;22.60;60.80;;;;;;5068087;28;19977;-8
2022/09/21 06:48:21;;;;;;;;;;;22.80;59.80;;;;;;5068927;28;19917;-9
2022/09/21 06:50:46;;;;;;;;;;;23.00;59.20;;;;;;5052476;28;20146;-9
2022/09/21 06:53:13;;;;;;;;;;;23.20;58.70;;;;;;5068953;28;20139;-9
2022/09/21 06:55:39;;;;;;;;;;;23.40;58.30;;;;;;5050062;28;19975;-7
2022/09/21 06:58:05;;;;;;;;;;;23.60;57.60;;;;;;5066646;28;20092;-9
2022/09/21 07:00:31;;;;;;;;;;;23.70;57.10;;;;;;5069084;28;20150;-9
2022/09/21 07:02:57;;;;;;;;;;;23.90;56.60;;;;;;5068184;28;19912;-8
2022/09/21 07:05:23;;;;;;;;;;;24.10;56.30;;;;;;5050372;28;19920;-10
2022/09/21 07:07:48;;;;;;;;;;;24.20;55.80;;;;;;5050356;28;20296;-8
2022/09/21 07:10:14;;;;;;;;;;;24.50;55.30;;;;;;5050197;28;20001;-8
2022/09/21 07:12:40;;;;;;;;;;;24.70;54.70;;;;;;5070635;28;20222;-8
2022/09/21 07:15:06;;;;;;;;;;;24.90;54.10;;;;;;5052858;28;19961;-9
2022/09/21 07:17:32;;;;;;;;;;;25.10;53.70;;;;;;5067173;28;19909;-9
2022/09/21 07:19:58;;;;;;;;;;;25.40;53.30;;;;;;5068808;28;19909;-9
2022/09/21 07:22:24;;;;;;;;;;;25.60;52.90;;;;;;5050908;28;19922;-9
2022/09/21 07:24:49;;;;;;;;;;;25.80;52.50;;;;;;5051554;28;19912;-8
2022/09/21 07:27:15;;;;;;;;;;;26.00;52.10;;;;;;5069594;28;19908;-9
2022/09/21 07:29:41;;;;;;;;;;;26.20;51.70;;;;;;5069068;28;19908;-9
2022/09/21 07:32:08;;;;;;;;;;;26.40;51.30;;;;;;5050848;28;19909;-9
2022/09/21 07:34:35;;;;;;;;;;;26.60;51.00;;;;;;5069168;28;19909;-8
2022/09/21 07:37:01;;;;;;;;;;;26.80;50.60;;;;;;5050852;28;19919;-8
2022/09/21 07:39:27;;;;;;;;;;;27.00;50.20;;;;;;5072919;28;20193;-9
2022/09/21 07:41:53;;;;;;;;;;;27.10;49.90;;;;;;5057483;28;20054;-9
2022/09/21 07:44:21;;;;;;;;;;;27.30;49.60;;;;;;5057515;28;19995;-9
2022/09/21 07:46:50;;;;;;;;;;;27.50;49.40;;;;;;5057721;28;20476;-8
2022/09/21 07:49:15;;;;;;;;;;;27.60;49.20;;;;;;5057891;28;20370;-10
2022/09/21 07:51:41;;;;;;;;;;;27.80;48.90;;;;;;5075322;28;19908;-10
2022/09/21 07:54:11;;;;;;;;;;;27.80;48.70;;;;;;5057879;28;20408;-10
2022/09/21 07:56:36;;;;;;;;;;;28.00;48.50;;;;;;5055312;28;20339;-10
2022/09/21 07:59:05;;;;;;;;;;;28.10;48.40;;;;;;5075833;28;20003;-13
2022/09/21 08:01:35;;;;;;;;;;;28.20;48.10;;;;;;5075432;28;19916;-10
2022/09/21 08:04:01;;;;;;;;;;;28.30;48.10;;;;;;5058509;28;19919;-10
2022/09/21 08:06:29;;;;;;;;;;;28.30;47.90;;;;;;5075220;28;19909;-11
2022/09/21 08:08:54;;;;;;;;;;;28.40;47.90;;;;;;5074669;28;19975;-11
2022/09/21 08:11:21;;;;;;;;;;;28.40;47.60;;;;;;5073982;28;20301;-11
2022/09/21 08:13:47;;;;;;;;;;;28.60;47.50;;;;;;5075797;28;20058;-10
2022/09/21 08:16:13;;;;;;;;;;;28.70;47.30;;;;;;5073190;28;19920;-9
2022/09/21 08:18:39;;;;;;;;;;;28.90;47.10;;;;;;5047299;28;19908;-9
2022/09/21 08:21:05;;;;;;;;;;;28.90;46.90;;;;;;5068019;28;20305;-10
2022/09/21 08:23:31;;;;;;;;;;;29.00;46.70;;;;;;5067014;28;20167;-10
2022/09/21 08:26:01;;;;;;;;;;;29.10;46.60;;;;;;5050308;28;20148;-10
2022/09/21 08:28:27;;;;;;;;;;;29.20;46.40;;;;;;5047663;28;19916;-11
2022/09/21 08:30:53;;;;;;;;;;;29.30;46.30;;;;;;5066426;28;19934;-10
2022/09/21 08:33:18;;;;;;;;;;;29.40;46.10;;;;;;5066853;28;20478;-10
2022/09/21 08:35:51;;;;;;;;;;;29.60;46.00;;;;;;5067311;28;20067;-11
2022/09/21 08:38:16;;;;;;;;;;;29.70;46.00;;;;;;5066582;28;20333;-11
2022/09/21 08:40:42;;;;;;;;;;;29.80;45.90;;;;;;5066989;28;19908;-10
2022/09/21 08:43:09;;;;;;;;;;;29.80;45.80;;;;;;5065270;28;20077;-11
2022/09/21 08:45:40;;;;;;;;;;;29.90;45.70;;;;;;5064823;28;20166;-11
2022/09/21 08:48:10;;;;;;;;;;;30.00;45.60;;;;;;5065009;28;19909;-10
2022/09/21 08:50:39;;;;;;;;;;;30.10;45.50;;;;;;5063520;28;20277;-11
2022/09/21 08:53:06;;;;;;;;;;;30.20;45.50;;;;;;5064961;28;19917;-11
2022/09/21 08:55:32;;;;;;;;;;;30.30;45.50;;;;;;5062848;28;20160;-10
2022/09/21 08:57:59;;;;;;;;;;;30.40;45.30;;;;;;5046913;28;19909;-12
2022/09/21 09:00:26;;;;;;;;;;;30.40;45.30;;;;;;5065654;28;19970;-11
2022/09/21 09:03:07;;;;;;;;;;;30.40;45.30;;;;;;5045225;28;19913;-11
2022/09/21 09:05:35;;;;;;;;;;;30.40;45.20;;;;;;5046670;28;19958;-11
2022/09/21 09:08:01;;;;;;;;;;;30.50;45.30;;;;;;5046315;28;19909;-11
2022/09/21 09:10:45;;;;;;;;;;;30.40;45.20;;;;;;5047048;28;20127;-11
2022/09/21 09:13:30;;;;;;;;;;;30.40;45.20;;;;;;5048177;28;19944;-10
2022/09/21 09:15:55;;;;;;;;;;;30.40;45.20;;;;;;5063450;28;19908;-10
2022/09/21 09:18:38;;;;;;;;;;;30.50;45.10;;;;;;5046359;28;20395;-12
2022/09/21 09:21:11;;;;;;;;;;;30.50;45.10;;;;;;5063637;28;19908;-9
2022/09/21 09:23:38;;;;;;;;;;;30.50;45.00;;;;;;5056049;28;19909;-10
2022/09/21 09:26:08;;;;;;;;;;;30.60;45.00;;;;;;5065964;28;19969;-12
2022/09/21 09:28:33;;;;;;;;;;;30.60;44.90;;;;;;5063977;28;20048;-11
2022/09/21 09:31:05;;;;;;;;;;;30.70;44.90;;;;;;5046811;28;19974;-11
2022/09/21 09:33:42;;;;;;;;;;;30.70;44.90;;;;;;5065476;28;19908;-11
2022/09/21 09:36:09;;;;;;;;;;;30.80;44.80;;;;;;5064896;28;19908;-11
2022/09/21 09:38:37;;;;;;;;;;;30.70;44.60;;;;;;5064935;28;20329;-10
2022/09/21 09:41:03;;;;;;;;;;;30.70;44.70;;;;;;5065552;28;19965;-10
2022/09/21 09:43:31;;;;;;;;;;;30.60;44.60;;;;;;5054801;28;19951;-11
2022/09/21 09:46:00;;;;;;;;;;;30.60;44.80;;;;;;5073759;28;19999;-12
2022/09/21 09:48:25;;;;;;;;;;;30.30;44.80;;;;;;5072376;28;20015;-11
2022/09/21 09:50:51;;;;;;;;;;;29.90;44.90;;;;;;5069594;28;20011;-11
2022/09/21 09:53:21;;;;;;;;;;;29.10;45.10;;;;;;5070848;28;19916;-11
2022/09/21 09:55:51;;;;;;;;;;;28.20;45.50;;;;;;5070406;28;20367;-10
2022/09/21 09:58:20;;;;;;;;;;;27.40;46.30;;;;;;5069565;28;19909;-10
2022/09/21 10:00:49;;;;;;;;;;;26.70;47.00;;;;;;5045643;28;19947;-11
2022/09/21 10:03:17;;;;;;;;;;;26.00;47.70;;;;;;5067177;28;20309;-11
2022/09/21 10:05:43;;;;;;;;;;;25.50;48.40;;;;;;5065810;28;20347;-10
2022/09/21 10:08:27;;;;;;;;;;;24.90;49.20;;;;;;5066009;28;20061;-10
2022/09/21 10:10:52;;;;;;;;;;;24.50;49.90;;;;;;5068310;28;20007;-11
2022/09/21 10:13:32;;;;;;;;;;;24.10;50.50;;;;;;5070148;28;20015;-11
2022/09/21 10:15:58;;;;;;;;;;;23.80;51.00;;;;;;5067882;28;19909;-11
2022/09/21 10:18:28;;;;;;;;;;;23.60;51.40;;;;;;5067454;28;20054;-11
2022/09/21 10:21:02;;;;;;;;;;;23.40;51.90;;;;;;5066190;28;19973;-11
2022/09/21 10:23:28;;;;;;;;;;;23.40;52.30;;;;;;5068837;28;20165;-11
2022/09/21 10:26:02;;;;;;;;;;;23.20;52.60;;;;;;5067840;28;19927;-11
2022/09/21 10:28:28;;;;;;;;;;;23.00;53.00;;;;;;5066693;28;19951;-11
2022/09/21 10:31:23;;;;;;;;;;;22.90;53.40;;;;;;5071886;28;19939;-9
2022/09/21 10:34:05;;;;;;;;;;;22.80;54.00;;;;;;5055129;28;19909;-11
2022/09/21 10:36:31;;;;;;;;;;;22.60;54.60;;;;;;5073911;28;19908;-10
2022/09/21 10:39:17;;;;;;;;;;;22.50;55.30;;;;;;5068114;28;20055;-10
2022/09/21 10:41:46;;;;;;;;;;;22.40;55.80;;;;;;5051460;28;20289;-10
2022/09/21 10:44:16;;;;;;;;;;;22.30;56.40;;;;;;5068934;28;19955;-10
2022/09/21 10:46:42;;;;;;;;;;;22.20;56.90;;;;;;5067785;28;19909;-10
2022/09/21 10:49:18;;;;;;;;;;;22.10;57.30;;;;;;5070719;28;20082;-9
2022/09/21 10:51:45;;;;;;;;;;;22.00;57.80;;;;;;5069200;28;19916;-10
2022/09/21 10:54:13;;;;;;;;;;;22.00;58.50;;;;;;5068081;28;20167;-11
2022/09/21 10:56:49;;;;;;;;;;;21.90;58.90;;;;;;5068889;28;19909;-11
2022/09/21 10:59:17;;;;;;;;;;;21.80;59.40;;;;;;5052474;28;20107;-10
2022/09/21 11:01:47;;;;;;;;;;;21.70;59.90;;;;;;5050866;28;19917;-12
2022/09/21 11:04:22;;;;;;;;;;;21.60;60.60;;;;;;5050862;28;19916;-10
2022/09/21 11:07:11;;;;;;;;;;;21.50;61.70;;;;;;5066973;28;19973;-11
2022/09/21 11:09:39;;;;;;;;;;;21.40;62.50;;;;;;5001474;28;19943;-10
2022/09/21 11:12:17;;;;;;;;;;;21.30;63.50;;;;;;5066274;28;20011;-11
2022/09/21 11:14:55;;;;;;;;;;;21.30;64.20;;;;;;5063386;28;20000;-11
2022/09/21 11:17:21;;;;;;;;;;;21.30;64.80;;;;;;5045888;28;19948;-10
2022/09/21 11:20:02;;;;;;;;;;;21.20;65.50;;;;;;5047732;28;20137;-10
2022/09/21 11:22:39;;;;;;;;;;;21.20;66.20;;;;;;5048362;28;20345;-10
2022/09/21 11:25:23;;;;;;;;;;;21.10;66.90;;;;;;5066296;28;19936;-10
2022/09/21 11:27:55;;;;;;;;;;;21.10;67.50;;;;;;5067717;28;19932;-10
2022/09/21 11:30:20;;;;;;;;;;;21.00;68.10;;;;;;5048789;28;19912;-10
2022/09/21 11:32:46;;;;;;;;;;;21.00;68.70;;;;;;5046298;28;20402;-10
2022/09/21 11:35:34;;;;;;;;;;;20.90;69.10;;;;;;5064137;28;19948;-10
2022/09/21 11:38:00;;;;;;;;;;;21.00;69.80;;;;;;5065064;28;20038;-10
2022/09/21 11:40:28;;;;;;;;;;;20.90;70.00;;;;;;5066151;28;19934;-10
2022/09/21 11:42:57;;;;;;;;;;;21.00;70.30;;;;;;5064773;28;20301;-10
2022/09/21 11:45:31;;;;;;;;;;;20.90;70.80;;;;;;5063099;28;19916;-10
2022/09/21 11:48:06;;;;;;;;;;;20.90;71.20;;;;;;5064102;28;20038;-11
2022/09/21 11:50:55;;;;;;;;;;;20.90;71.60;;;;;;5045813;28;19908;-11
2022/09/21 11:53:27;;;;;;;;;;;20.90;71.90;;;;;;5064386;28;19951;-9
2022/09/21 11:55:53;;;;;;;;;;;20.80;72.20;;;;;;5062104;28;19912;-11
2022/09/21 11:58:24;;;;;;;;;;;20.80;72.50;;;;;;5062054;28;19908;-11
2022/09/21 12:00:50;;;;;;;;;;;20.80;72.90;;;;;;5064531;28;19923;-10
2022/09/21 12:03:19;;;;;;;;;;;20.70;73.10;;;;;;5046257;28;19920;-10
2022/09/21 12:05:54;;;;;;;;;;;20.70;73.50;;;;;;5063120;28;20165;-10
2022/09/21 12:08:20;;;;;;;;;;;20.70;74.00;;;;;;5044638;28;19959;-10
2022/09/21 12:10:51;;;;;;;;;;;20.70;75.10;;;;;;5065558;28;19948;-11
2022/09/21 12:13:36;;;;;;;;;;;20.60;74.80;;;;;;5065791;28;19915;-9
2022/09/21 12:16:04;;;;;;;;;;;20.60;75.20;;;;;;5066088;28;20076;-10
2022/09/21 12:18:30;;;;;;;;;;;20.60;75.60;;;;;;5047768;28;20061;-11
2022/09/21 12:21:18;;;;;;;;;;;20.60;76.00;;;;;;5065663;28;20002;-10
2022/09/21 12:23:45;;;;;;;;;;;20.50;76.50;;;;;;5059193;28;20211;-10
2022/09/21 12:26:14;;;;;;;;;;;20.50;76.90;;;;;;5064697;28;20007;-10
2022/09/21 12:28:55;;;;;;;;;;;20.50;77.30;;;;;;5065502;28;19919;-11
2022/09/21 12:31:23;;;;;;;;;;;20.50;77.40;;;;;;5066728;28;20206;-10
2022/09/21 12:33:50;;;;;;;;;;;20.50;77.60;;;;;;5074712;28;19905;-10
2022/09/21 12:36:19;;;;;;;;;;;20.50;77.70;;;;;;5056901;28;19920;-10
2022/09/21 12:38:48;;;;;;;;;;;20.50;77.80;;;;;;5075172;28;19916;-10
2022/09/21 12:41:16;;;;;;;;;;;20.50;77.80;;;;;;5075095;28;19919;-11
2022/09/21 12:43:55;;;;;;;;;;;20.60;78.00;;;;;;5076478;28;20289;-9
2022/09/21 12:46:37;;;;;;;;;;;20.60;78.10;;;;;;5069040;28;20272;-10
2022/09/21 12:49:13;;;;;;;;;;;20.60;78.20;;;;;;5074779;28;19908;-11
2022/09/21 12:51:48;;;;;;;;;;;20.50;78.50;;;;;;5072634;28;20301;-11
2022/09/21 12:54:14;;;;;;;;;;;20.50;78.70;;;;;;5072945;28;19920;-10
2022/09/21 12:56:43;;;;;;;;;;;20.50;79.00;;;;;;5074080;28;20064;-10
2022/09/21 12:59:12;;;;;;;;;;;20.50;79.40;;;;;;5055921;28;19912;-11
2022/09/21 13:01:43;;;;;;;;;;;20.40;79.80;;;;;;5056405;28;19998;-11
2022/09/21 13:04:09;;;;;;;;;;;20.40;80.10;;;;;;5074465;28;19913;-10
2022/09/21 13:06:53;;;;;;;;;;;20.40;80.40;;;;;;5056703;28;20050;-11
2022/09/21 13:09:19;;;;;;;;;;;20.40;80.70;;;;;;5073931;28;20015;-10
2022/09/21 13:11:50;;;;;;;;;;;20.40;80.90;;;;;;5073368;28;20429;-11
2022/09/21 13:14:17;;;;;;;;;;;20.40;81.20;;;;;;5056583;28;19915;-10
2022/09/21 13:16:43;;;;;;;;;;;20.30;81.20;;;;;;5056947;28;19919;-10
2022/09/21 13:19:11;;;;;;;;;;;20.40;81.50;;;;;;5056477;28;19908;-9
2022/09/21 13:21:37;;;;;;;;;;;20.30;81.60;;;;;;5074746;28;20425;-10
2022/09/21 13:24:04;;;;;;;;;;;20.30;81.70;;;;;;5074721;28;19948;-10
2022/09/21 13:26:34;;;;;;;;;;;20.30;82.60;;;;;;5056118;28;19909;-11
2022/09/21 13:29:01;;;;;;;;;;;20.30;82.10;;;;;;5057361;28;19908;-11
2022/09/21 13:31:33;;;;;;;;;;;20.30;82.20;;;;;;5074821;28;20313;-11
2022/09/21 13:34:14;;;;;;;;;;;20.30;82.20;;;;;;5057629;28;19908;-10
2022/09/21 13:36:41;;;;;;;;;;;20.30;82.40;;;;;;5075368;28;19966;-11
2022/09/21 13:39:19;;;;;;;;;;;20.30;82.20;;;;;;5075374;28;20104;-10
2022/09/21 13:41:44;;;;;;;;;;;20.30;82.30;;;;;;5056731;28;20201;-10
2022/09/21 13:44:29;;;;;;;;;;;20.40;82.40;;;;;;5074143;28;20454;-10
2022/09/21 13:46:57;;;;;;;;;;;20.40;82.40;;;;;;5056955;28;19917;-10
2022/09/21 13:49:51;;;;;;;;;;;20.40;82.30;;;;;;5074530;28;19916;-11
2022/09/21 13:52:21;;;;;;;;;;;20.40;82.20;;;;;;5055829;28;20294;-10
2022/09/21 13:54:49;;;;;;;;;;;20.40;82.30;;;;;;5073437;28;19909;-10
2022/09/21 13:57:14;;;;;;;;;;;20.40;82.50;;;;;;5054236;28;19916;-10
2022/09/21 13:59:41;;;;;;;;;;;20.40;82.50;;;;;;5071903;28;20137;-11
2022/09/21 14:02:20;;;;;;;;;;;20.40;82.70;;;;;;5071636;28;19924;-10
2022/09/21 14:04:47;;;;;;;;;;;20.40;82.80;;;;;;5072219;28;19908;-10
2022/09/21 14:07:13;;;;;;;;;;;20.40;83.00;;;;;;5054785;28;20305;-11
2022/09/21 14:09:51;;;;;;;;;;;20.40;83.10;;;;;;5072782;28;19920;-10
2022/09/21 14:12:22;;;;;;;;;;;20.40;83.10;;;;;;5055176;28;19916;-10
2022/09/21 14:15:10;;;;;;;;;;;20.40;83.20;;;;;;5055161;28;19912;-11
2022/09/21 14:17:37;;;;;;;;;;;20.40;83.20;;;;;;5057231;28;20525;-11
2022/09/21 14:20:04;;;;;;;;;;;20.40;83.30;;;;;;5053746;28;19908;-10
2022/09/21 14:22:36;;;;;;;;;;;20.40;83.40;;;;;;5053977;28;19913;-10
2022/09/21 14:25:24;;;;;;;;;;;20.40;83.70;;;;;;5037004;28;20015;-10
2022/09/21 14:27:50;;;;;;;;;;;20.40;83.60;;;;;;5037965;28;19913;-10
2022/09/21 14:30:16;;;;;;;;;;;20.40;83.70;;;;;;5036331;28;19909;-10
2022/09/21 14:32:46;;;;;;;;;;;20.40;83.90;;;;;;5053239;28;19920;-9
2022/09/21 14:35:17;;;;;;;;;;;20.40;83.20;;;;;;5060649;28;19920;-11
2022/09/21 14:37:51;;;;;;;;;;;20.30;83.80;;;;;;5078007;28;19908;-11
2022/09/21 14:40:24;;;;;;;;;;;20.30;84.20;;;;;;5076236;28;19916;-10
2022/09/21 14:42:50;;;;;;;;;;;20.30;84.50;;;;;;5076319;28;19912;-10